Time;durP1;ratioP1;P1;durP2;ratioP2;P2;SDS_P1;SDS_P2;PMS_P1;PMS_P2;Temp;Humidity;BMP_temperature;BMP_pressure;BME280_temperature;BME280_humidity;BME280_pressure;Samples;Min_cycle;Max_cycle;Signal;HPM_P1;HPM_P2
2022/04/23 00:01:43;;;;;;;;;24.00;23.00;;;;;15.72;48.96;99657.03;4989353;28;45548;-60
2022/04/23 00:04:13;;;;;;;;;28.50;25.75;;;;;15.73;49.06;99657.84;4991006;28;45473;-61
2022/04/23 00:06:39;;;;;;;;;29.00;24.25;;;;;15.70;49.24;99658.97;4984241;28;45337;-61
2022/04/23 00:09:05;;;;;;;;;23.25;23.25;;;;;15.68;49.10;99654.81;4986601;28;45337;-61
2022/04/23 00:11:30;;;;;;;;;28.00;25.00;;;;;15.64;49.20;99651.63;4982373;28;45434;-62
2022/04/23 00:13:56;;;;;;;;;29.50;24.50;;;;;15.61;49.18;99657.22;4991299;28;45384;-61
2022/04/23 00:16:25;;;;;;;;;28.00;24.75;;;;;15.57;48.98;99646.06;4989218;28;45372;-61
2022/04/23 00:18:51;;;;;;;;;28.25;26.75;;;;;15.55;49.27;99648.00;4990549;28;45317;-60
2022/04/23 00:21:18;;;;;;;;;29.25;23.75;;;;;15.54;49.20;99650.81;4983207;28;45489;-61
2022/04/23 00:23:45;;;;;;;;;33.25;26.50;;;;;15.51;49.44;99645.81;4989331;28;45323;-60
2022/04/23 00:26:10;;;;;;;;;23.25;22.75;;;;;15.47;49.40;99642.59;4989077;28;46021;-60
2022/04/23 00:28:36;;;;;;;;;24.50;23.00;;;;;15.44;49.65;99639.41;4988859;28;45321;-61
2022/04/23 00:31:01;;;;;;;;;28.00;25.50;;;;;15.38;49.91;99635.53;4987048;28;45472;-60
2022/04/23 00:33:27;;;;;;;;;29.50;27.50;;;;;15.37;49.69;99631.22;4991061;28;45472;-61
2022/04/23 00:35:52;;;;;;;;;30.75;28.00;;;;;15.37;49.93;99636.53;4992733;28;45454;-60
2022/04/23 00:38:18;;;;;;;;;25.25;25.00;;;;;15.35;49.93;99634.03;4991635;28;45506;-60
2022/04/23 00:40:44;;;;;;;;;27.25;24.75;;;;;15.33;49.75;99627.22;4989905;28;45462;-60
2022/04/23 00:43:33;;;;;;;;;38.00;26.75;;;;;15.29;49.95;99625.81;4990101;28;45610;-59
2022/04/23 00:46:00;;;;;;;;;23.00;20.50;;;;;15.22;50.10;99625.56;4991504;28;46199;-60
2022/04/23 00:48:26;;;;;;;;;29.50;29.25;;;;;15.19;50.15;99619.72;4992743;28;45371;-60
2022/04/23 00:50:55;;;;;;;;;25.50;23.25;;;;;15.18;50.22;99615.41;4989309;28;45419;-61
2022/04/23 00:53:21;;;;;;;;;29.00;28.00;;;;;15.18;50.60;99626.88;4990281;28;45543;-60
2022/04/23 00:55:48;;;;;;;;;29.50;24.25;;;;;15.13;50.34;99615.00;4988901;28;45205;-59
2022/04/23 00:58:17;;;;;;;;;29.50;25.50;;;;;15.10;50.52;99610.00;4989648;28;45326;-61
2022/04/23 01:00:46;;;;;;;;;28.50;26.50;;;;;15.07;50.46;99609.31;4993287;28;45471;-59
2022/04/23 01:03:12;;;;;;;;;25.75;24.75;;;;;15.05;50.55;99600.66;4986865;28;45399;-60
2022/04/23 01:05:44;;;;;;;;;29.00;27.25;;;;;15.05;50.85;99599.84;4991027;28;45400;-60
2022/04/23 01:08:12;;;;;;;;;29.50;26.50;;;;;15.06;50.63;99601.50;4985665;28;45277;-61
2022/04/23 01:10:37;;;;;;;;;29.50;27.75;;;;;15.05;50.79;99600.66;4990902;28;45329;-60
2022/04/23 01:13:03;;;;;;;;;31.75;29.75;;;;;15.04;50.68;99598.16;4990431;28;45517;-59
2022/04/23 01:15:28;;;;;;;;;32.50;31.00;;;;;15.02;50.88;99593.03;4984765;28;46029;-59
2022/04/23 01:17:54;;;;;;;;;27.25;25.00;;;;;15.02;50.64;99592.19;4993428;28;45163;-59
2022/04/23 01:20:20;;;;;;;;;27.00;24.00;;;;;14.99;50.94;99588.00;4992274;28;45325;-61
2022/04/23 01:22:45;;;;;;;;;30.25;27.50;;;;;14.92;51.07;99586.91;4991748;28;45492;-60
2022/04/23 01:25:13;;;;;;;;;33.50;31.25;;;;;14.90;51.07;99599.47;4987312;28;46154;-60
2022/04/23 01:27:40;;;;;;;;;26.25;21.00;;;;;14.87;50.92;99589.19;4989967;28;45451;-60
2022/04/23 01:30:07;;;;;;;;;28.00;27.25;;;;;14.85;51.23;99591.16;4988914;28;45482;-62
2022/04/23 01:32:33;;;;;;;;;28.75;25.00;;;;;14.84;51.38;99588.63;4991296;28;45320;-62
2022/04/23 01:34:59;;;;;;;;;30.25;26.00;;;;;14.76;51.16;99587.53;4992147;28;46038;-61
2022/04/23 01:37:25;;;;;;;;;28.00;25.00;;;;;14.76;51.38;99589.34;4991708;28;45505;-60
2022/04/23 01:39:50;;;;;;;;;32.00;26.75;;;;;14.73;51.79;99587.84;4987577;28;45406;-60
2022/04/23 01:42:18;;;;;;;;;32.75;26.25;;;;;14.69;51.57;99583.81;4989446;28;45510;-61
2022/04/23 01:44:48;;;;;;;;;25.50;24.75;;;;;14.66;51.54;99578.78;4988517;28;46305;-60
2022/04/23 01:47:14;;;;;;;;;33.75;29.00;;;;;14.64;51.68;99578.09;4989957;28;45458;-60
2022/04/23 01:49:40;;;;;;;;;30.50;28.25;;;;;14.65;51.64;99568.34;4990686;28;45406;-60
2022/04/23 01:52:06;;;;;;;;;29.50;24.00;;;;;14.65;51.81;99574.47;4990437;28;45416;-61
2022/04/23 01:54:32;;;;;;;;;46.00;37.00;;;;;14.65;51.70;99576.28;4985189;28;46343;-60
2022/04/23 01:56:58;;;;;;;;;27.75;25.00;;;;;14.60;51.76;99568.75;4988561;28;45592;-59
2022/04/23 01:59:24;;;;;;;;;34.00;31.00;;;;;14.58;51.96;99573.38;4992721;28;45509;-59
2022/04/23 02:01:50;;;;;;;;;32.50;24.75;;;;;14.59;51.76;99572.41;4991391;28;45543;-60
2022/04/23 02:04:16;;;;;;;;;30.50;27.50;;;;;14.60;52.01;99567.94;4988247;28;45440;-59
2022/04/23 02:06:42;;;;;;;;;31.75;26.25;;;;;14.57;51.99;99565.59;4989768;28;45414;-57
2022/04/23 02:09:08;;;;;;;;;31.50;26.25;;;;;14.55;52.03;99563.09;4978996;28;45437;-58
2022/04/23 02:11:33;;;;;;;;;31.25;26.50;;;;;14.54;51.87;99568.53;4988577;28;45649;-60
2022/04/23 02:13:59;;;;;;;;;25.75;24.75;;;;;14.55;52.08;99562.25;4987886;28;46095;-58
2022/04/23 02:16:26;;;;;;;;;32.25;28.75;;;;;14.52;52.07;99563.34;4988250;28;45219;-58
2022/04/23 02:18:51;;;;;;;;;30.25;27.00;;;;;14.48;52.14;99560.16;4991284;28;45397;-58
2022/04/23 02:21:17;;;;;;;;;29.50;25.75;;;;;14.45;52.27;99559.56;4990594;28;45367;-59
2022/04/23 02:23:43;;;;;;;;;28.25;27.00;;;;;14.44;52.11;99556.09;4987856;28;46606;-60
2022/04/23 02:26:10;;;;;;;;;30.50;28.25;;;;;14.45;52.08;99552.50;4988288;28;45451;-59
2022/04/23 02:28:38;;;;;;;;;32.00;29.75;;;;;14.47;52.02;99561.16;4987864;28;45254;-59
2022/04/23 02:31:04;;;;;;;;;26.75;21.75;;;;;14.45;52.21;99555.13;4992278;28;45225;-59
2022/04/23 02:33:30;;;;;;;;;29.00;28.50;;;;;14.45;52.37;99554.28;4992173;28;46183;-59
2022/04/23 02:35:56;;;;;;;;;31.75;29.75;;;;;14.45;52.40;99557.78;4975274;28;45377;-59
2022/04/23 02:38:21;;;;;;;;;30.00;28.25;;;;;14.44;52.41;99552.59;4962718;28;45367;-60
2022/04/23 02:40:47;;;;;;;;;26.00;25.00;;;;;14.44;52.44;99549.97;4962688;28;45304;-60
2022/04/23 02:43:12;;;;;;;;;29.75;28.50;;;;;14.41;52.57;99543.16;4962411;28;45500;-60
2022/04/23 02:45:39;;;;;;;;;32.75;29.50;;;;;14.35;52.58;99543.72;4962521;28;45346;-59
2022/04/23 02:48:05;;;;;;;;;31.50;28.50;;;;;14.34;52.41;99538.56;4962596;28;45337;-59
2022/04/23 02:50:32;;;;;;;;;27.00;25.00;;;;;14.31;52.66;99537.06;4962599;28;45195;-59
2022/04/23 02:52:59;;;;;;;;;30.50;25.00;;;;;14.29;52.62;99535.50;4962046;28;46001;-59
2022/04/23 02:55:27;;;;;;;;;38.00;31.00;;;;;14.28;52.68;99539.13;4962099;28;45309;-59
2022/04/23 02:57:53;;;;;;;;;29.00;26.25;;;;;14.27;52.95;99535.66;4961928;28;45413;-59
2022/04/23 03:00:19;;;;;;;;;27.75;26.00;;;;;14.23;52.78;99527.19;4962673;28;45245;-60
2022/04/23 03:02:47;;;;;;;;;25.00;25.00;;;;;14.20;52.84;99538.03;4962138;28;45321;-59
2022/04/23 03:05:16;;;;;;;;;31.00;26.75;;;;;14.17;53.08;99525.09;4962430;28;45250;-60
2022/04/23 03:07:43;;;;;;;;;27.75;24.25;;;;;14.12;52.99;99518.53;4962136;28;45314;-59
2022/04/23 03:10:10;;;;;;;;;27.75;27.25;;;;;14.12;53.18;99521.19;4974362;28;45320;-59
2022/04/23 03:12:36;;;;;;;;;28.00;26.75;;;;;14.11;53.16;99522.19;4981227;28;46354;-59
2022/04/23 03:15:22;;;;;;;;;25.25;24.50;;;;;14.11;53.20;99520.38;4981806;28;45258;-59
2022/04/23 03:17:47;;;;;;;;;29.00;22.00;;;;;14.09;53.06;99524.97;4981290;28;45250;-59
2022/04/23 03:20:14;;;;;;;;;33.25;26.75;;;;;14.09;53.18;99510.91;4981535;28;45234;-59
2022/04/23 03:22:41;;;;;;;;;31.75;25.50;;;;;14.05;53.33;99520.94;4981324;28;45353;-61
2022/04/23 03:25:08;;;;;;;;;27.50;24.00;;;;;14.00;53.09;99509.94;4981278;28;45332;-59
2022/04/23 03:27:33;;;;;;;;;31.00;26.00;;;;;13.97;53.09;99515.50;4981668;28;45309;-59
2022/04/23 03:29:59;;;;;;;;;28.00;25.25;;;;;13.94;53.45;99508.69;4981432;28;45643;-58
2022/04/23 03:32:26;;;;;;;;;24.75;23.75;;;;;13.93;53.43;99509.69;4984533;28;45359;-58
2022/04/23 03:34:51;;;;;;;;;28.75;25.25;;;;;13.88;53.61;99506.63;4981381;28;45250;-58
2022/04/23 03:37:17;;;;;;;;;28.50;25.75;;;;;13.87;53.62;99501.47;4981312;28;45498;-59
2022/04/23 03:39:44;;;;;;;;;26.75;23.75;;;;;13.86;53.57;99499.81;4981262;28;45347;-59
2022/04/23 03:42:10;;;;;;;;;24.75;24.75;;;;;13.85;53.63;99501.63;4981267;28;46380;-59
2022/04/23 03:44:35;;;;;;;;;30.25;26.00;;;;;13.83;53.74;99493.00;4981145;28;45547;-59
2022/04/23 03:47:01;;;;;;;;;25.50;25.50;;;;;13.82;53.66;99490.47;4981459;28;45508;-59
2022/04/23 03:49:28;;;;;;;;;27.75;24.00;;;;;13.77;53.70;99485.59;4981374;28;45326;-59
2022/04/23 03:51:54;;;;;;;;;27.50;23.25;;;;;13.74;53.87;99472.63;4981007;28;45382;-59
2022/04/23 03:54:20;;;;;;;;;25.00;24.00;;;;;13.75;53.87;99468.22;4980624;28;45305;-60
2022/04/23 03:56:46;;;;;;;;;27.00;26.00;;;;;13.75;53.92;99478.78;4981276;28;45341;-59
2022/04/23 03:59:12;;;;;;;;;24.50;24.00;;;;;13.75;53.89;99470.84;4979888;28;45253;-59
2022/04/23 04:01:37;;;;;;;;;24.75;23.00;;;;;13.73;53.90;99470.13;4981248;28;46187;-59
2022/04/23 04:04:03;;;;;;;;;28.00;22.25;;;;;13.72;53.96;99471.13;4980834;28;45397;-59
2022/04/23 04:06:29;;;;;;;;;24.00;23.25;;;;;13.73;54.02;99470.13;4980927;28;45373;-59
2022/04/23 04:08:55;;;;;;;;;30.50;26.50;;;;;13.74;54.21;99477.09;4981823;28;45218;-59
2022/04/23 04:11:21;;;;;;;;;27.25;25.25;;;;;13.75;54.17;99473.50;4984555;28;45420;-59
2022/04/23 04:13:47;;;;;;;;;30.25;26.75;;;;;13.75;54.20;99470.84;4984406;28;45367;-59
2022/04/23 04:16:14;;;;;;;;;23.50;20.50;;;;;13.78;54.17;99478.50;4984518;28;45391;-59
2022/04/23 04:18:40;;;;;;;;;25.25;21.50;;;;;13.79;53.93;99466.94;4984516;28;45326;-59
2022/04/23 04:21:07;;;;;;;;;24.75;24.00;;;;;13.80;54.06;99464.13;4966654;28;47544;-59
2022/04/23 04:23:33;;;;;;;;;29.25;25.50;;;;;13.81;54.14;99457.88;4984150;28;45234;-59
2022/04/23 04:25:58;;;;;;;;;25.00;23.75;;;;;13.76;53.97;99462.78;4984433;28;45250;-59
2022/04/23 04:28:24;;;;;;;;;28.00;25.75;;;;;13.74;54.12;99461.22;4984267;28;45234;-59
2022/04/23 04:33:34;;;;;;;;;29.00;21.75;;;;;13.65;54.36;99471.69;4982839;28;45415;-59
2022/04/23 04:35:59;;;;;;;;;31.00;24.50;;;;;13.67;54.42;99474.22;4983954;28;45317;-59
2022/04/23 04:38:25;;;;;;;;;26.00;24.50;;;;;13.68;54.25;99473.22;4984297;28;45206;-59
2022/04/23 04:40:51;;;;;;;;;24.50;22.25;;;;;13.66;54.15;99470.69;4983995;28;45332;-59
2022/04/23 04:43:17;;;;;;;;;27.25;23.50;;;;;13.66;54.26;99472.50;4983857;28;45285;-59
2022/04/23 04:45:42;;;;;;;;;22.00;20.00;;;;;13.64;54.49;99463.88;4984174;28;45411;-59
2022/04/23 04:48:08;;;;;;;;;21.50;17.50;;;;;13.61;54.67;99467.66;4983965;28;45614;-59
2022/04/23 04:50:33;;;;;;;;;27.00;22.00;;;;;13.61;54.58;99465.03;4983900;28;45922;-59
2022/04/23 04:52:59;;;;;;;;;29.25;24.00;;;;;13.61;54.47;99475.59;4983500;28;45317;-59
2022/04/23 04:55:24;;;;;;;;;32.75;25.25;;;;;13.61;54.50;99469.47;4983650;28;45328;-59
2022/04/23 04:57:50;;;;;;;;;24.25;23.75;;;;;13.59;54.82;99464.34;4983684;28;45491;-59
2022/04/23 05:00:16;;;;;;;;;27.50;22.75;;;;;13.62;54.62;99468.50;4983795;28;46141;-59
2022/04/23 05:02:42;;;;;;;;;27.00;23.75;;;;;13.62;54.66;99464.03;4983264;28;45317;-59
2022/04/23 05:05:08;;;;;;;;;29.50;25.75;;;;;13.63;54.69;99471.00;4983864;28;45348;-59
2022/04/23 05:07:34;;;;;;;;;25.50;22.00;;;;;13.65;54.55;99470.84;4983300;28;45362;-59
2022/04/23 05:10:00;;;;;;;;;21.50;20.50;;;;;13.70;54.54;99468.63;4983429;28;45326;-59
2022/04/23 05:12:26;;;;;;;;;26.00;23.50;;;;;13.73;54.33;99467.50;4983247;28;45457;-59
2022/04/23 05:14:52;;;;;;;;;25.75;22.75;;;;;13.73;54.44;99464.84;4983720;28;45376;-59
2022/04/23 05:17:17;;;;;;;;;27.50;23.25;;;;;13.75;54.46;99466.41;4983445;28;45595;-59
2022/04/23 05:19:42;;;;;;;;;25.75;25.25;;;;;13.78;54.51;99465.28;4983024;28;45570;-59
2022/04/23 05:22:08;;;;;;;;;27.75;25.00;;;;;13.78;54.47;99471.41;4983092;28;45485;-59
2022/04/23 05:24:33;;;;;;;;;25.75;23.00;;;;;13.82;54.24;99475.41;4983446;28;45390;-59
2022/04/23 05:26:59;;;;;;;;;25.50;24.75;;;;;13.83;54.12;99470.97;4983267;28;45491;-59
2022/04/23 05:29:24;;;;;;;;;32.50;26.00;;;;;13.83;54.00;99468.34;4983165;28;45254;-59
2022/04/23 05:31:50;;;;;;;;;29.25;25.00;;;;;13.85;54.37;99463.72;4985952;28;45368;-59
2022/04/23 05:34:15;;;;;;;;;25.75;24.00;;;;;13.86;54.06;99465.38;4983373;28;45383;-59
2022/04/23 05:36:41;;;;;;;;;23.75;22.25;;;;;13.85;54.06;99456.63;4983004;28;45313;-59
2022/04/23 05:39:06;;;;;;;;;27.00;26.00;;;;;13.86;54.12;99460.94;4983142;28;45321;-59
2022/04/23 05:41:32;;;;;;;;;29.00;25.50;;;;;13.89;54.00;99462.44;4983018;28;45325;-60
2022/04/23 05:43:58;;;;;;;;;28.00;24.75;;;;;13.92;53.92;99463.00;4983329;28;45302;-59
2022/04/23 05:46:23;;;;;;;;;27.00;24.50;;;;;13.96;53.90;99460.91;4982982;28;45517;-59
2022/04/23 05:48:49;;;;;;;;;24.50;23.50;;;;;13.99;53.97;99457.97;4983021;28;45249;-59
2022/04/23 05:51:14;;;;;;;;;28.75;24.75;;;;;14.01;54.07;99449.88;4982565;28;45255;-59
2022/04/23 05:53:41;;;;;;;;;24.25;23.75;;;;;14.02;54.01;99459.50;4982801;28;45396;-59
2022/04/23 05:56:07;;;;;;;;;36.25;29.00;;;;;14.04;54.05;99458.34;4982536;28;45305;-59
2022/04/23 05:58:36;;;;;;;;;34.50;29.50;;;;;14.08;53.84;99453.63;4982909;28;46096;-59
2022/04/23 06:01:01;;;;;;;;;30.50;28.25;;;;;14.09;53.67;99447.34;4982775;28;45359;-60
2022/04/23 06:03:27;;;;;;;;;27.00;25.25;;;;;14.09;53.62;99450.00;4983006;28;45230;-60
2022/04/23 06:05:52;;;;;;;;;30.25;27.75;;;;;14.05;53.99;99457.38;4982637;28;45499;-60
2022/04/23 06:08:18;;;;;;;;;28.75;24.50;;;;;14.02;53.90;99443.59;4982777;28;46060;-60
2022/04/23 06:10:43;;;;;;;;;30.25;24.50;;;;;14.02;53.88;99448.91;4982268;28;45336;-60
2022/04/23 06:13:09;;;;;;;;;31.75;25.00;;;;;14.04;53.96;99441.63;4982724;28;45252;-60
2022/04/23 06:15:35;;;;;;;;;32.50;27.25;;;;;14.05;53.95;99433.56;4982626;28;45597;-59
2022/04/23 06:18:01;;;;;;;;;30.75;25.00;;;;;14.08;53.85;99445.69;4982665;28;45321;-60
2022/04/23 06:20:26;;;;;;;;;29.25;28.00;;;;;14.11;53.83;99438.28;4982260;28;45412;-60
2022/04/23 06:22:51;;;;;;;;;27.75;27.00;;;;;14.18;53.84;99455.25;4982583;28;45526;-60
2022/04/23 06:25:17;;;;;;;;;30.75;27.50;;;;;14.23;54.02;99454.81;4982326;28;45408;-60
2022/04/23 06:27:43;;;;;;;;;27.75;23.75;;;;;14.29;54.05;99461.34;4982415;28;45396;-60
2022/04/23 06:30:09;;;;;;;;;27.25;24.75;;;;;14.37;54.00;99470.22;4982373;28;45406;-60
2022/04/23 06:32:38;;;;;;;;;34.25;26.50;;;;;14.47;53.82;99486.97;4984012;28;45363;-60
2022/04/23 06:35:05;;;;;;;;;28.75;26.00;;;;;14.57;53.62;99494.84;4982409;28;45511;-60
2022/04/23 06:37:32;;;;;;;;;23.75;21.50;;;;;14.59;53.17;99489.41;4981896;28;45389;-59
2022/04/23 06:39:57;;;;;;;;;28.00;25.50;;;;;14.62;53.01;99468.75;4981938;28;45334;-60
2022/04/23 06:42:24;;;;;;;;;27.75;24.25;;;;;14.68;53.07;99469.97;4982289;28;45336;-60
2022/04/23 06:44:49;;;;;;;;;26.25;23.75;;;;;14.75;52.79;99490.44;4982128;28;45305;-60
2022/04/23 06:47:15;;;;;;;;;25.25;22.00;;;;;14.80;52.77;99482.03;4982076;28;46131;-60
2022/04/23 06:49:40;;;;;;;;;25.25;20.75;;;;;14.82;52.71;99468.63;4981904;28;45205;-59
2022/04/23 06:52:06;;;;;;;;;31.25;25.00;;;;;14.85;52.58;99478.94;4961040;28;45348;-60
2022/04/23 06:54:32;;;;;;;;;28.25;25.25;;;;;14.88;52.88;99474.19;4979435;28;45187;-60
2022/04/23 06:56:57;;;;;;;;;30.00;27.25;;;;;14.99;52.38;99476.59;4982007;28;46093;-60
2022/04/23 06:59:23;;;;;;;;;27.25;26.00;;;;;15.10;52.41;99475.56;4978473;28;45514;-59
2022/04/23 07:01:48;;;;;;;;;29.75;27.75;;;;;15.18;52.10;99467.69;4989861;28;45209;-60
2022/04/23 07:04:14;;;;;;;;;27.50;25.50;;;;;15.22;52.27;99470.88;4977679;28;45568;-61
2022/04/23 07:06:40;;;;;;;;;34.75;27.00;;;;;15.25;52.24;99478.53;4971081;28;45478;-61
2022/04/23 07:09:06;;;;;;;;;30.75;28.00;;;;;15.26;52.25;99466.94;4969582;28;45373;-61
2022/04/23 07:11:32;;;;;;;;;25.75;24.25;;;;;15.28;51.77;99475.56;4970783;28;45472;-62
2022/04/23 07:13:58;;;;;;;;;27.25;25.00;;;;;15.31;51.90;99481.41;4968755;28;45344;-61
2022/04/23 07:16:23;;;;;;;;;26.75;25.25;;;;;15.35;51.93;99477.47;4966075;28;46361;-61
2022/04/23 07:18:52;;;;;;;;;27.25;25.25;;;;;15.39;52.12;99464.72;4970315;28;45296;-61
2022/04/23 07:21:18;;;;;;;;;29.25;28.00;;;;;15.40;51.57;99469.03;4970371;28;45265;-61
2022/04/23 07:26:28;;;;;;;;;27.50;25.25;;;;;15.43;51.96;99458.13;4970127;28;45485;-61
2022/04/23 07:28:53;;;;;;;;;24.50;23.25;;;;;15.45;51.49;99458.81;4969405;28;46426;-62
2022/04/23 07:31:19;;;;;;;;;28.00;26.50;;;;;15.46;51.70;99460.47;4970242;28;45432;-61
2022/04/23 07:39:12;;;;;;;;;32.00;24.25;;;;;15.45;51.69;99455.31;4969951;28;45318;-61
2022/04/23 07:41:38;;;;;;;;;31.50;28.75;;;;;15.44;51.76;99448.34;4968009;28;45519;-61
2022/04/23 07:44:03;;;;;;;;;31.75;28.50;;;;;15.44;51.79;99453.66;4969555;28;45318;-61
2022/04/23 07:46:30;;;;;;;;;25.00;22.75;;;;;15.42;51.83;99455.63;4970949;28;45337;-60
2022/04/23 07:48:58;;;;;;;;;32.50;28.25;;;;;15.41;51.90;99459.28;4969256;28;45384;-60
2022/04/23 07:51:26;;;;;;;;;27.50;24.75;;;;;15.43;52.18;99457.31;4968349;28;45323;-60
2022/04/23 07:53:55;;;;;;;;;24.50;21.00;;;;;15.43;51.89;99457.31;4969142;28;45417;-59
2022/04/23 07:56:21;;;;;;;;;29.00;27.50;;;;;15.48;51.92;99457.66;4968936;28;46140;-60
2022/04/23 07:58:47;;;;;;;;;32.25;26.75;;;;;15.52;52.18;99448.41;4968654;28;45463;-60
2022/04/23 08:01:12;;;;;;;;;30.75;26.00;;;;;15.58;52.03;99451.28;4971290;28;45306;-60
2022/04/23 08:03:38;;;;;;;;;29.75;26.00;;;;;15.66;52.06;99445.25;4970462;28;45451;-61
2022/04/23 08:06:03;;;;;;;;;28.00;24.50;;;;;15.73;51.87;99445.47;4969881;28;46024;-60
2022/04/23 08:08:29;;;;;;;;;36.25;29.25;;;;;15.79;51.53;99443.00;4971861;28;45393;-60
2022/04/23 08:10:55;;;;;;;;;28.00;27.50;;;;;15.82;51.84;99437.38;4968814;28;45407;-60
2022/04/23 08:13:21;;;;;;;;;31.25;30.00;;;;;15.94;52.10;99442.41;4969623;28;45474;-60
2022/04/23 08:15:46;;;;;;;;;28.75;26.25;;;;;16.06;51.63;99439.34;4968939;28;45585;-60
2022/04/23 08:18:12;;;;;;;;;35.00;29.50;;;;;16.18;51.45;99442.56;4969478;28;45235;-60
2022/04/23 08:20:41;;;;;;;;;32.75;30.50;;;;;16.26;51.08;99437.28;4970439;28;45436;-66
2022/04/23 08:23:09;;;;;;;;;31.25;27.75;;;;;16.35;51.15;99443.47;4968973;28;45437;-61
2022/04/23 08:25:35;;;;;;;;;33.25;28.00;;;;;16.43;50.88;99433.72;4970471;28;46294;-59
2022/04/23 08:30:45;;;;;;;;;31.50;26.00;;;;;16.56;50.83;99427.94;4967283;28;45574;-60
2022/04/23 08:33:10;;;;;;;;;29.25;28.25;;;;;16.59;50.48;99434.75;4967311;28;45457;-59
2022/04/23 08:35:37;;;;;;;;;31.25;29.50;;;;;16.64;50.62;99430.63;4967894;28;45582;-60
2022/04/23 08:38:04;;;;;;;;;29.75;28.25;;;;;16.67;50.60;99426.81;4973500;28;45510;-60
2022/04/23 08:40:35;;;;;;;;;31.00;26.75;;;;;16.70;51.03;99424.69;4972356;28;45416;-60
2022/04/23 08:43:01;;;;;;;;;32.50;29.50;;;;;16.71;50.70;99423.69;4979466;28;45317;-61
2022/04/23 08:45:27;;;;;;;;;32.25;29.25;;;;;16.78;50.62;99421.22;4980384;28;45334;-62
2022/04/23 08:47:58;;;;;;;;;35.75;31.25;;;;;16.85;50.48;99424.91;4980086;28;45274;-62
2022/04/23 08:50:25;;;;;;;;;30.75;27.75;;;;;16.89;50.05;99423.56;4980158;28;45322;-62
2022/04/23 08:52:56;;;;;;;;;32.50;31.25;;;;;16.90;50.61;99421.72;4979937;28;45659;-60
2022/04/23 08:55:21;;;;;;;;;33.50;30.75;;;;;16.89;50.54;99425.38;4981020;28;45472;-65
2022/04/23 08:57:48;;;;;;;;;31.00;29.00;;;;;16.94;50.50;99429.22;4981426;28;45337;-66
2022/04/23 09:00:15;;;;;;;;;32.25;30.75;;;;;16.96;50.20;99427.22;4977545;28;45383;-64
2022/04/23 09:02:42;;;;;;;;;30.00;26.50;;;;;17.00;50.53;99427.75;4972647;28;45526;-65
2022/04/23 09:05:12;;;;;;;;;36.50;32.50;;;;;17.05;50.56;99435.22;4977624;28;46182;-66
2022/04/23 09:07:38;;;;;;;;;34.25;31.00;;;;;17.05;50.58;99429.91;4970019;28;45431;-62
2022/04/23 09:10:05;;;;;;;;;29.50;28.00;;;;;17.06;50.87;99431.56;4979018;28;45300;-66
2022/04/23 09:12:31;;;;;;;;;31.50;28.25;;;;;17.05;50.52;99422.75;4983337;28;45465;-66
2022/04/23 09:23:39;;;;;;;;;30.75;29.50;;;;;17.10;50.53;99425.75;4975863;28;45250;-67
2022/04/23 09:23:43;;;;;;;;;35.00;27.75;;;;;17.31;50.54;99425.28;4963542;28;45480;-66
2022/04/23 09:26:20;;;;;;;;;32.25;29.50;;;;;17.41;50.35;99430.44;4967182;28;45485;-63
2022/04/23 09:28:48;;;;;;;;;35.50;30.00;;;;;17.45;50.38;99424.59;4977898;28;45582;-64
2022/04/23 09:31:15;;;;;;;;;37.00;27.75;;;;;17.50;50.26;99427.59;4963687;28;45325;-63
2022/04/23 09:33:46;;;;;;;;;30.25;27.00;;;;;17.52;50.24;99430.91;4980668;28;45492;-63
2022/04/23 09:36:12;;;;;;;;;38.25;32.75;;;;;17.53;49.92;99426.41;4962894;28;45556;-64
2022/04/23 09:38:38;;;;;;;;;37.75;27.75;;;;;17.61;50.03;99425.59;4963184;28;45322;-64
2022/04/23 09:41:17;;;;;;;;;28.25;24.75;;;;;17.68;50.02;99427.41;4962160;28;45441;-71
2022/04/23 09:43:44;;;;;;;;;33.75;28.00;;;;;17.81;50.15;99416.28;4963645;28;45493;-64
2022/04/23 09:46:10;;;;;;;;;29.00;26.00;;;;;17.95;49.75;99420.91;4976776;28;46190;-66
2022/04/23 09:48:43;;;;;;;;;29.75;28.00;;;;;18.03;49.42;99415.56;4963765;28;45459;-66
2022/04/23 09:51:21;;;;;;;;;36.00;31.50;;;;;18.12;49.01;99419.84;4963243;28;45325;-66
2022/04/23 09:53:49;;;;;;;;;29.00;26.25;;;;;18.21;49.07;99414.50;4963408;28;45321;-65
2022/04/23 09:56:17;;;;;;;;;32.75;29.50;;;;;18.31;48.98;99418.63;4963120;28;46492;-66
2022/04/23 09:58:43;;;;;;;;;26.00;23.50;;;;;18.40;48.52;99419.41;4963263;28;45421;-66
2022/04/23 10:01:08;;;;;;;;;27.00;25.50;;;;;18.46;48.70;99417.88;4975854;28;45516;-66
2022/04/23 10:03:34;;;;;;;;;28.50;27.25;;;;;18.50;48.26;99424.56;4971317;28;45317;-65
2022/04/23 10:06:02;;;;;;;;;29.25;28.50;;;;;18.56;48.01;99419.31;4987396;28;45491;-65
2022/04/23 10:08:30;;;;;;;;;30.25;29.50;;;;;18.62;48.19;99421.31;4981027;28;45423;-65
2022/04/23 10:10:59;;;;;;;;;31.50;30.25;;;;;18.66;48.22;99420.00;4963150;28;45417;-65
2022/04/23 10:13:29;;;;;;;;;29.50;28.75;;;;;18.74;48.17;99419.13;4980008;28;45384;-65
2022/04/23 10:15:55;;;;;;;;;28.50;24.75;;;;;18.81;47.84;99420.09;4982685;28;45416;-65
2022/04/23 10:18:22;;;;;;;;;29.25;27.25;;;;;18.88;47.59;99417.50;4982650;28;45580;-66
2022/04/23 10:21:00;;;;;;;;;33.50;27.50;;;;;18.95;47.60;99416.63;4982543;28;45507;-65
2022/04/23 10:24:05;;;;;;;;;30.50;28.25;;;;;19.01;48.11;99415.09;4982789;28;45290;-66
2022/04/23 10:26:42;;;;;;;;;30.50;28.00;;;;;19.08;47.55;99410.72;4982372;28;45398;-67
2022/04/23 10:29:14;;;;;;;;;29.75;28.00;;;;;19.13;47.96;99419.03;4982708;28;45455;-66
2022/04/23 10:31:41;;;;;;;;;27.75;24.50;;;;;19.20;47.62;99419.16;4982420;28;45193;-66
2022/04/23 10:34:30;;;;;;;;;30.00;28.50;;;;;19.25;47.58;99409.56;4982726;28;45338;-66
2022/04/23 10:37:15;;;;;;;;;29.75;28.00;;;;;19.31;47.59;99407.22;4982208;28;46185;-67
2022/04/23 10:39:42;;;;;;;;;26.50;25.50;;;;;19.34;47.41;99406.84;4980834;28;45277;-67
2022/04/23 10:42:12;;;;;;;;;32.50;29.75;;;;;19.36;47.53;99408.34;4982507;28;45304;-66
2022/04/23 10:44:38;;;;;;;;;28.25;26.00;;;;;19.41;46.96;99394.44;4982324;28;45458;-66
2022/04/23 10:47:12;;;;;;;;;35.00;27.00;;;;;19.44;47.30;99399.44;4982103;28;45872;-66
2022/04/23 10:49:37;;;;;;;;;30.75;28.50;;;;;19.47;47.27;99399.88;4982077;28;45258;-66
2022/04/23 10:52:03;;;;;;;;;32.00;27.00;;;;;19.48;47.04;99390.84;4981891;28;45400;-67
2022/04/23 10:54:41;;;;;;;;;34.00;27.50;;;;;19.56;47.57;99394.47;4981782;28;45327;-66
2022/04/23 10:57:08;;;;;;;;;28.75;25.50;;;;;19.64;47.24;99383.72;4981815;28;46149;-66
2022/04/23 10:59:47;;;;;;;;;30.50;29.00;;;;;19.74;47.33;99393.13;4982178;28;45448;-67
2022/04/23 11:02:19;;;;;;;;;27.00;24.25;;;;;19.84;47.09;99398.22;4981704;28;45445;-66
2022/04/23 11:13:29;;;;;;;;;23.50;22.00;;;;;20.27;46.30;99393.06;4984361;28;45155;-67
2022/04/23 11:16:16;;;;;;;;;33.25;27.25;;;;;20.33;46.45;99395.81;4964124;28;45633;-66
2022/04/23 11:18:46;;;;;;;;;19.75;18.75;;;;;20.40;45.09;99384.38;4981069;28;45471;-66
2022/04/23 11:21:17;;;;;;;;;21.25;20.00;;;;;20.47;45.16;99383.47;4981586;28;45221;-67
2022/04/23 11:23:45;;;;;;;;;18.00;18.00;;;;;20.55;45.17;99382.53;4973730;28;45365;-65
2022/04/23 11:26:13;;;;;;;;;22.00;19.75;;;;;20.60;45.38;99380.94;4962102;28;45656;-64
2022/04/23 11:28:40;;;;;;;;;19.25;18.25;;;;;20.66;45.04;99376.69;4971258;28;45349;-62
2022/04/23 11:31:16;;;;;;;;;24.25;18.00;;;;;20.68;44.30;99379.16;4973247;28;45727;-68
2022/04/23 11:33:58;;;;;;;;;18.00;18.00;;;;;20.71;44.52;99373.44;4973192;28;46802;-67
2022/04/23 11:36:31;;;;;;;;;15.00;14.00;;;;;20.62;44.40;99367.38;4968176;28;45328;-65
2022/04/23 11:39:03;;;;;;;;;17.75;15.75;;;;;20.50;44.64;99364.34;4964803;28;45415;-68
2022/04/23 11:41:53;;;;;;;;;20.25;18.50;;;;;20.52;44.45;99369.50;4970482;28;45522;-66
2022/04/23 11:47:09;;;;;;;;;18.25;16.00;;;;;20.64;43.81;99357.31;4966413;28;45450;-62
2022/04/23 11:49:34;;;;;;;;;20.50;15.00;;;;;20.70;44.21;99355.75;4973903;28;46348;-60